createdAt,value
2018-04-12T00:01:29.566Z,11.67
2018-04-12T00:03:57.846Z,11.69
2018-04-12T00:06:26.141Z,11.65
2018-04-12T00:08:55.187Z,11.49
2018-04-12T00:11:23.488Z,11.51
2018-04-12T00:13:51.759Z,11.64
2018-04-12T00:16:20.059Z,11.65
2018-04-12T00:18:49.162Z,11.67
2018-04-12T00:21:18.217Z,11.67
2018-04-12T00:23:46.498Z,11.70
2018-04-12T00:26:14.793Z,11.72
2018-04-12T00:28:43.074Z,11.78
2018-04-12T00:31:12.136Z,11.75
2018-04-12T00:33:40.416Z,11.72
2018-04-12T00:36:08.703Z,11.63
2018-04-12T00:38:36.991Z,11.71
2018-04-12T00:41:05.286Z,11.65
2018-04-12T00:43:34.328Z,11.77
2018-04-12T00:46:02.607Z,11.69
2018-04-12T00:48:30.901Z,11.68
2018-04-12T00:50:59.182Z,11.62
2018-04-12T00:53:45.207Z,11.72
2018-04-12T00:56:13.493Z,11.65
2018-04-12T00:58:41.787Z,11.67
2018-04-12T01:01:10.076Z,11.57
2018-04-12T01:03:38.359Z,11.61
2018-04-12T01:06:06.634Z,11.60
2018-04-12T01:08:34.915Z,11.60
2018-04-12T01:11:03.189Z,11.59
2018-04-12T01:13:32.058Z,11.63
2018-04-12T01:16:00.342Z,11.61
2018-04-12T01:18:28.624Z,11.70
2018-04-12T01:20:58.233Z,11.64
2018-04-12T01:23:26.524Z,11.75
2018-04-12T01:25:54.835Z,11.69
2018-04-12T01:28:23.887Z,11.61
2018-04-12T01:30:52.162Z,11.72
2018-04-12T01:33:20.459Z,11.74
2018-04-12T01:35:48.751Z,11.58
2018-04-12T01:38:17.808Z,11.69
2018-04-12T01:40:46.083Z,11.56
2018-04-12T01:43:14.355Z,11.43
2018-04-12T01:45:42.663Z,11.41
2018-04-12T01:48:10.951Z,11.51
2018-04-12T01:50:39.999Z,11.53
2018-04-12T01:53:08.268Z,11.44
2018-04-12T01:55:36.553Z,11.36
2018-04-12T01:58:04.838Z,11.28
2018-04-12T02:00:33.151Z,11.30
2018-04-12T02:03:02.191Z,11.31
2018-04-12T02:05:30.480Z,11.24
2018-04-12T02:07:59.536Z,11.29
2018-04-12T02:10:27.822Z,11.35
2018-04-12T02:12:56.094Z,11.37
2018-04-12T02:15:24.386Z,11.32
2018-04-12T02:17:52.655Z,11.44
2018-04-12T02:20:20.946Z,11.29
2018-04-12T02:22:49.229Z,11.42
2018-04-12T02:25:17.519Z,11.48
2018-04-12T02:27:45.795Z,11.37
2018-04-12T02:30:14.088Z,11.44
2018-04-12T02:32:42.365Z,11.40
2018-04-12T02:35:10.658Z,11.25
2018-04-12T02:37:38.984Z,11.15
2018-04-12T02:40:07.280Z,11.16
2018-04-12T02:42:35.576Z,11.16
2018-04-12T02:45:04.008Z,11.32
2018-04-12T02:47:32.288Z,11.31
2018-04-12T02:50:00.580Z,11.40
2018-04-12T02:52:28.891Z,11.51
2018-04-12T02:54:57.200Z,11.54
2018-04-12T02:57:25.504Z,11.48
2018-04-12T02:59:53.783Z,11.51
2018-04-12T03:02:22.098Z,11.57
2018-04-12T03:04:50.368Z,11.64
2018-04-12T03:07:18.663Z,11.59
2018-04-12T03:09:47.707Z,11.66
2018-04-12T03:12:15.995Z,11.65
2018-04-12T03:14:44.280Z,11.70
2018-04-12T03:17:12.572Z,11.70
2018-04-12T03:19:40.835Z,11.76
2018-04-12T03:22:09.147Z,11.88
2018-04-12T03:24:38.200Z,11.85
2018-04-12T03:27:06.527Z,11.88
2018-04-12T03:29:34.878Z,11.76
2018-04-12T03:32:03.175Z,11.91
2018-04-12T03:34:32.214Z,11.93
2018-04-12T03:37:00.507Z,12.02
2018-04-12T03:39:28.774Z,11.99
2018-04-12T03:41:57.070Z,12.09
2018-04-12T03:44:25.338Z,12.14
2018-04-12T03:46:53.627Z,12.12
2018-04-12T03:49:21.943Z,12.20
2018-04-12T03:51:50.180Z,12.16
2018-04-12T03:54:18.480Z,12.19
2018-04-12T03:56:47.518Z,12.26
2018-04-12T03:59:15.802Z,12.16
2018-04-12T04:01:44.106Z,12.17
2018-04-12T04:04:12.437Z,12.11
2018-04-12T04:06:40.703Z,12.04
2018-04-12T04:09:08.990Z,12.09
2018-04-12T04:11:37.287Z,11.98
2018-04-12T04:14:05.581Z,11.93
2018-04-12T04:16:51.630Z,12.09
2018-04-12T04:19:37.490Z,11.95
2018-04-12T04:22:06.534Z,12.12
2018-04-12T04:24:34.828Z,12.10
2018-04-12T04:27:03.148Z,12.07
2018-04-12T04:29:32.295Z,12.05
2018-04-12T04:32:00.579Z,12.03
2018-04-12T04:34:28.869Z,12.07
2018-04-12T04:36:57.135Z,12.15
2018-04-12T04:39:25.447Z,11.99
2018-04-12T04:41:54.479Z,12.03
2018-04-12T04:44:22.764Z,12.08
2018-04-12T04:46:51.035Z,12.18
2018-04-12T04:49:19.347Z,12.23
2018-04-12T04:51:47.620Z,12.28
2018-04-12T04:54:15.909Z,12.28
2018-04-12T04:56:44.946Z,12.36
2018-04-12T04:59:13.209Z,12.32
2018-04-12T05:01:42.266Z,12.35
2018-04-12T05:04:11.309Z,12.43
2018-04-12T05:06:39.591Z,12.50
2018-04-12T05:09:07.862Z,12.46
2018-04-12T05:11:36.147Z,12.71
2018-04-12T05:14:04.406Z,12.84
2018-04-12T05:16:32.795Z,12.71
2018-04-12T05:19:01.067Z,12.78
2018-04-12T05:21:29.355Z,12.75
2018-04-12T05:23:57.621Z,12.44
2018-04-12T05:26:25.904Z,12.41
2018-04-12T05:28:54.177Z,12.55
2018-04-12T05:31:22.455Z,12.49
2018-04-12T05:33:50.744Z,12.53
2018-04-12T05:36:19.035Z,12.61
2018-04-12T05:38:47.307Z,12.61
2018-04-12T05:41:15.607Z,12.39
2018-04-12T05:43:43.880Z,12.27
2018-04-12T05:46:12.171Z,12.28
2018-04-12T05:48:41.223Z,12.33
2018-04-12T05:51:09.525Z,12.32
2018-04-12T05:53:38.565Z,12.39
2018-04-12T05:56:08.095Z,12.37
2018-04-12T05:58:36.420Z,12.47
2018-04-12T06:01:05.484Z,12.66
2018-04-12T06:03:33.759Z,12.44
2018-04-12T06:06:02.023Z,12.62
2018-04-12T06:08:31.082Z,12.60
2018-04-12T06:10:59.391Z,12.90
2018-04-12T06:13:27.690Z,13.00
2018-04-12T06:15:55.961Z,12.82
2018-04-12T06:18:24.251Z,13.08
2018-04-12T06:20:52.517Z,13.14
2018-04-12T06:23:20.808Z,13.02
2018-04-12T06:25:49.141Z,13.13
2018-04-12T06:28:17.434Z,13.27
2018-04-12T06:30:45.694Z,13.34
2018-04-12T06:33:14.025Z,13.25
2018-04-12T06:35:43.076Z,13.28
2018-04-12T06:38:11.362Z,13.41
2018-04-12T06:40:39.631Z,13.46
2018-04-12T06:43:07.934Z,13.45
2018-04-12T06:45:36.219Z,13.63
2018-04-12T06:48:05.274Z,13.44
2018-04-12T06:50:33.561Z,13.67
2018-04-12T06:53:02.642Z,13.57
2018-04-12T06:55:30.915Z,13.72
2018-04-12T06:57:59.212Z,13.68
2018-04-12T07:00:27.479Z,13.64
2018-04-12T07:02:55.775Z,13.91
2018-04-12T07:05:24.040Z,14.15
2018-04-12T07:07:52.306Z,14.15
2018-04-12T07:10:20.600Z,13.96
2018-04-12T07:12:48.868Z,14.20
2018-04-12T07:15:17.331Z,14.30
2018-04-12T07:17:45.605Z,14.19
2018-04-12T07:20:13.898Z,14.15
2018-04-12T07:22:42.183Z,14.30
2018-04-12T07:25:10.541Z,14.43
2018-04-12T07:27:38.896Z,14.28
2018-04-12T07:30:07.276Z,13.95
2018-04-12T07:32:35.618Z,14.02
2018-04-12T07:35:04.014Z,14.19
2018-04-12T07:37:33.113Z,14.35
2018-04-12T07:40:01.607Z,14.79
2018-04-12T07:42:29.957Z,15.17
2018-04-12T07:44:58.318Z,15.25
2018-04-12T07:47:27.443Z,15.68
2018-04-12T07:49:55.836Z,15.53
2018-04-12T07:52:24.217Z,15.69
2018-04-12T07:54:52.571Z,15.84
2018-04-12T07:57:20.966Z,16.06
2018-04-12T07:59:49.328Z,15.94
2018-04-12T08:02:17.686Z,15.45
2018-04-12T08:04:46.827Z,15.33
2018-04-12T08:07:15.157Z,15.16
2018-04-12T08:09:44.290Z,15.14
2018-04-12T08:12:12.631Z,14.96
2018-04-12T08:14:41.749Z,15.41
2018-04-12T08:17:10.065Z,15.82
2018-04-12T08:19:38.390Z,16.15
2018-04-12T08:22:07.500Z,16.03
2018-04-12T08:24:35.852Z,16.36
2018-04-12T08:27:04.218Z,16.80
2018-04-12T08:29:32.534Z,16.44
2018-04-12T08:32:00.901Z,16.44
2018-04-12T08:34:30.035Z,16.39
2018-04-12T08:36:58.384Z,16.61
2018-04-12T08:39:26.778Z,16.63
2018-04-12T08:41:55.158Z,16.81
2018-04-12T08:44:23.511Z,16.97
2018-04-12T08:46:52.651Z,16.91
2018-04-12T08:49:21.002Z,16.89
2018-04-12T08:51:49.383Z,17.08
2018-04-12T08:54:17.716Z,17.23
2018-04-12T08:56:46.859Z,17.30
2018-04-12T08:59:15.198Z,17.11
2018-04-12T09:01:43.581Z,17.37
2018-04-12T09:04:11.942Z,17.42
2018-04-12T09:06:40.282Z,17.71
2018-04-12T09:09:08.663Z,17.94
2018-04-12T09:11:37.049Z,18.20
2018-04-12T09:14:05.389Z,18.30
2018-04-12T09:16:34.505Z,18.55
2018-04-12T09:19:02.839Z,18.49
2018-04-12T09:21:31.185Z,18.69
2018-04-12T09:23:59.526Z,18.75
2018-04-12T09:26:27.905Z,19.19
2018-04-12T09:28:56.275Z,19.32
2018-04-12T09:31:25.422Z,19.39
2018-04-12T09:33:53.715Z,19.36
2018-04-12T09:36:21.991Z,19.49
2018-04-12T09:38:50.276Z,19.67
2018-04-12T09:41:18.593Z,19.75
2018-04-12T09:43:46.839Z,19.83
2018-04-12T09:46:15.120Z,19.96
2018-04-12T09:48:43.406Z,20.11
2018-04-12T09:51:12.451Z,20.05
2018-04-12T09:53:40.731Z,20.27
2018-04-12T09:56:10.234Z,20.36
2018-04-12T09:58:38.518Z,20.42
2018-04-12T10:01:12.381Z,20.54
2018-04-12T10:03:44.278Z,20.34
2018-04-12T10:06:27.439Z,20.49
2018-04-12T10:09:01.365Z,20.67
2018-04-12T10:11:30.417Z,20.83
2018-04-12T10:13:58.699Z,20.54
2018-04-12T10:16:26.968Z,20.58
2018-04-12T10:18:55.304Z,20.90
2018-04-12T10:21:23.567Z,20.92
2018-04-12T10:23:52.616Z,21.18
2018-04-12T10:26:20.899Z,21.43
2018-04-12T10:28:49.241Z,21.41
2018-04-12T10:31:17.478Z,21.64
2018-04-12T10:33:46.511Z,21.40
2018-04-12T10:36:14.805Z,21.61
2018-04-12T10:38:43.109Z,21.92
2018-04-12T10:41:11.379Z,21.82
2018-04-12T10:43:39.694Z,21.99
2018-04-12T10:46:08.323Z,22.14
2018-04-12T10:48:36.615Z,22.08
2018-04-12T10:51:04.901Z,22.24
2018-04-12T10:53:33.465Z,22.34
2018-04-12T10:56:01.752Z,22.49
2018-04-12T10:58:30.789Z,22.16
2018-04-12T11:00:59.848Z,22.58
2018-04-12T11:03:28.204Z,22.47
2018-04-12T11:05:57.200Z,22.63
2018-04-12T11:08:25.479Z,22.73
2018-04-12T11:10:53.772Z,22.90
2018-04-12T11:13:22.047Z,23.02
2018-04-12T11:15:50.337Z,22.91
2018-04-12T11:18:18.677Z,23.25
2018-04-12T11:20:47.667Z,23.17
2018-04-12T11:23:15.959Z,23.18
2018-04-12T11:25:44.261Z,23.02
2018-04-12T11:28:12.538Z,23.15
2018-04-12T11:30:41.584Z,23.10
2018-04-12T11:33:09.864Z,23.06
2018-04-12T11:35:38.151Z,23.15
2018-04-12T11:38:06.444Z,23.15
2018-04-12T11:40:34.749Z,23.03
2018-04-12T11:43:03.012Z,22.88
2018-04-12T11:45:31.301Z,23.21
2018-04-12T11:47:59.655Z,23.33
2018-04-12T11:50:27.923Z,23.48
2018-04-12T11:52:56.216Z,23.85
2018-04-12T11:55:24.546Z,24.37
2018-04-12T11:57:52.922Z,24.27
2018-04-12T12:00:21.273Z,24.27
2018-04-12T12:02:50.378Z,24.40
2018-04-12T12:05:18.682Z,24.61
2018-04-12T12:07:46.995Z,25.14
2018-04-12T12:10:15.272Z,25.33
2018-04-12T12:12:43.564Z,24.75
2018-04-12T12:15:12.612Z,24.83
2018-04-12T12:17:40.914Z,25.29
2018-04-12T12:23:06.236Z,25.05
2018-04-12T12:25:34.516Z,25.33
2018-04-12T12:28:02.799Z,25.43
2018-04-12T12:30:31.084Z,25.16
2018-04-12T12:32:59.371Z,25.29
2018-04-12T12:35:28.403Z,24.98
2018-04-12T12:37:56.728Z,25.11
2018-04-12T12:40:25.000Z,25.47
2018-04-12T12:42:53.275Z,25.75
2018-04-12T12:45:22.376Z,26.08
2018-04-12T12:47:50.660Z,26.38
2018-04-12T12:50:19.694Z,26.07
2018-04-12T12:52:47.998Z,26.54
2018-04-12T12:55:16.267Z,26.95
2018-04-12T12:57:44.556Z,27.45
2018-04-12T13:00:12.848Z,26.87
2018-04-12T13:02:41.580Z,27.34
2018-04-12T13:05:09.856Z,27.06
2018-04-12T13:07:38.152Z,27.10
2018-04-12T13:10:06.456Z,26.60
2018-04-12T13:12:34.712Z,26.86
2018-04-12T13:15:02.995Z,27.59
2018-04-12T13:17:31.260Z,27.45
2018-04-12T13:19:59.538Z,27.33
2018-04-12T13:22:27.817Z,27.16
2018-04-12T13:24:56.089Z,26.82
2018-04-12T13:27:24.372Z,26.78
2018-04-12T13:29:52.657Z,26.44
2018-04-12T13:32:20.929Z,27.04
2018-04-12T13:34:49.202Z,26.65
2018-04-12T13:37:17.561Z,27.55
2018-04-12T13:39:45.829Z,27.30
2018-04-12T13:42:14.128Z,27.36
2018-04-12T13:44:42.421Z,27.85
2018-04-12T13:47:10.688Z,27.95
2018-04-12T13:49:38.957Z,27.81
2018-04-12T13:52:07.266Z,27.13
2018-04-12T13:54:35.537Z,26.70
2018-04-12T13:57:03.832Z,26.39
2018-04-12T13:59:32.896Z,26.09
2018-04-12T14:02:01.232Z,25.75
2018-04-12T14:04:29.503Z,25.54
2018-04-12T14:06:57.795Z,25.06
2018-04-12T14:09:26.108Z,24.76
2018-04-12T14:11:54.413Z,24.49
2018-04-12T14:14:23.444Z,24.39
2018-04-12T14:16:51.739Z,24.41
2018-04-12T14:19:20.786Z,24.01
2018-04-12T14:21:49.831Z,23.62
2018-04-12T14:24:18.168Z,23.95
2018-04-12T14:26:46.408Z,23.58
2018-04-12T14:29:14.719Z,23.95
2018-04-12T14:31:43.004Z,24.10
2018-04-12T14:34:11.294Z,23.87
2018-04-12T14:36:39.586Z,23.76
2018-04-12T14:39:07.942Z,23.86
2018-04-12T14:41:36.235Z,24.03
2018-04-12T14:44:05.105Z,23.81
2018-04-12T14:46:33.372Z,23.76
2018-04-12T14:49:01.739Z,23.65
2018-04-12T14:51:30.776Z,23.70
2018-04-12T14:53:59.063Z,23.65
2018-04-12T14:56:27.375Z,23.52
2018-04-12T14:58:56.428Z,23.38
2018-04-12T15:01:25.848Z,23.58
2018-04-12T15:03:54.122Z,24.07
2018-04-12T15:06:22.696Z,24.78
2018-04-12T15:08:50.993Z,24.88
2018-04-12T15:11:19.283Z,25.15
2018-04-12T15:13:48.320Z,24.65
2018-04-12T15:16:16.594Z,24.63
2018-04-12T15:18:44.892Z,24.52
2018-04-12T15:21:13.169Z,25.13
2018-04-12T15:23:41.459Z,25.15
2018-04-12T15:26:09.807Z,25.42
2018-04-12T15:28:38.087Z,25.30
2018-04-12T15:31:06.356Z,25.14
2018-04-12T15:33:34.653Z,25.07
2018-04-12T15:36:02.942Z,25.57
2018-04-12T15:38:31.213Z,25.93
2018-04-12T15:40:59.512Z,25.88
2018-04-12T15:43:27.782Z,26.20
2018-04-12T15:45:56.063Z,26.74
2018-04-12T15:48:24.360Z,27.15
2018-04-12T15:50:53.979Z,27.62
2018-04-12T15:53:22.296Z,28.16
2018-04-12T15:55:50.564Z,27.95
2018-04-12T15:58:18.850Z,27.76
2018-04-12T16:00:47.133Z,26.96
2018-04-12T16:03:15.419Z,26.47
2018-04-12T16:05:43.693Z,26.25
2018-04-12T16:08:11.961Z,25.83
2018-04-12T16:10:40.261Z,25.34
2018-04-12T16:13:08.527Z,25.08
2018-04-12T16:15:36.815Z,25.02
2018-04-12T16:18:05.112Z,25.28
2018-04-12T16:20:33.419Z,25.24
2018-04-12T16:23:01.693Z,25.65
2018-04-12T16:25:29.984Z,25.65
2018-04-12T16:27:58.253Z,25.67
2018-04-12T16:30:26.523Z,26.06
2018-04-12T16:32:54.816Z,26.29
2018-04-12T16:35:23.146Z,26.30
2018-04-12T16:37:51.493Z,25.81
2018-04-12T16:40:19.831Z,25.20
2018-04-12T16:42:48.190Z,24.42
2018-04-12T16:45:16.591Z,24.71
2018-04-12T16:47:44.941Z,24.22
2018-04-12T16:50:13.321Z,24.63
2018-04-12T16:52:41.682Z,25.02
2018-04-12T16:55:09.998Z,24.84
2018-04-12T16:57:38.274Z,25.27
2018-04-12T17:00:06.566Z,25.59
2018-04-12T17:02:34.840Z,25.09
2018-04-12T17:05:03.124Z,24.89
2018-04-12T17:07:31.423Z,24.96
2018-04-12T17:09:59.692Z,25.29
2018-04-12T17:12:28.005Z,25.13
2018-04-12T17:14:57.105Z,24.80
2018-04-12T17:17:25.412Z,24.75
2018-04-12T17:19:53.661Z,24.78
2018-04-12T17:22:21.959Z,24.70
2018-04-12T17:24:50.232Z,24.59
2018-04-12T17:27:18.504Z,24.22
2018-04-12T17:29:46.814Z,23.62
2018-04-12T17:32:15.135Z,23.49
2018-04-12T17:34:44.186Z,23.39
2018-04-12T17:37:12.480Z,23.21
2018-04-12T17:39:42.251Z,23.03
2018-04-12T17:42:10.538Z,22.93
2018-04-12T17:44:38.908Z,22.89
2018-04-12T17:47:07.225Z,22.83
2018-04-12T17:49:35.529Z,22.76
2018-04-12T17:52:04.619Z,22.67
2018-04-12T17:54:33.677Z,22.55
2018-04-12T17:57:02.007Z,22.41
2018-04-12T17:59:30.322Z,22.29
2018-04-12T18:01:58.618Z,22.11
2018-04-12T18:04:26.915Z,21.91
2018-04-12T18:06:55.998Z,21.49
2018-04-12T18:09:24.336Z,21.43
2018-04-12T18:11:52.632Z,21.27
2018-04-12T18:14:20.950Z,21.16
2018-04-12T18:16:50.123Z,20.82
2018-04-12T18:19:19.224Z,20.56
2018-04-12T18:21:48.322Z,19.99
2018-04-12T18:24:16.816Z,19.86
2018-04-12T18:26:45.732Z,19.83
2018-04-12T18:29:14.524Z,19.64
2018-04-12T18:31:43.201Z,19.40
2018-04-12T18:34:12.998Z,19.25
2018-04-12T18:36:42.559Z,19.17
2018-04-12T18:39:11.953Z,19.10
2018-04-12T18:41:42.543Z,19.04
2018-04-12T18:44:11.787Z,18.94
2018-04-12T18:46:41.147Z,18.76
2018-04-12T18:49:11.282Z,18.59
2018-04-12T18:51:41.470Z,18.01
2018-04-12T18:54:10.875Z,17.77
2018-04-12T18:56:40.459Z,18.01
2018-04-12T18:59:09.921Z,18.14
2018-04-12T19:01:40.751Z,18.27
2018-04-12T19:04:10.019Z,18.24
2018-04-12T19:06:39.466Z,18.25
2018-04-12T19:09:08.818Z,18.24
2018-04-12T19:11:38.225Z,18.08
2018-04-12T19:14:09.099Z,17.59
2018-04-12T19:16:39.282Z,17.63
2018-04-12T19:19:08.608Z,17.50
2018-04-12T19:21:37.963Z,17.51
2018-04-12T19:24:07.548Z,17.49
2018-04-12T19:26:37.070Z,17.66
2018-04-12T19:29:07.533Z,17.69
2018-04-12T19:31:37.817Z,17.46
2018-04-12T19:34:08.183Z,17.48
2018-04-12T19:36:38.445Z,17.64
2018-04-12T19:39:08.143Z,17.79
2018-04-12T19:41:37.658Z,17.93
2018-04-12T19:44:07.258Z,17.92
2018-04-12T19:46:37.742Z,17.82
2018-04-12T19:49:07.343Z,17.81
2018-04-12T19:51:36.858Z,17.84
2018-04-12T19:54:06.572Z,17.86
2018-04-12T19:56:36.951Z,17.79
2018-04-12T19:59:06.495Z,17.66
2018-04-12T20:01:36.756Z,17.56
2018-04-12T20:04:06.358Z,17.54
2018-04-12T20:06:37.702Z,17.51
2018-04-12T20:09:08.021Z,17.46
2018-04-12T20:11:37.542Z,17.46
2018-04-12T20:14:06.846Z,17.46
2018-04-12T20:16:37.013Z,17.25
2018-04-12T20:19:07.021Z,17.22
2018-04-12T20:21:36.453Z,17.14
2018-04-12T20:24:05.869Z,17.05
2018-04-12T20:26:36.047Z,17.05
2018-04-12T20:29:05.310Z,16.92
2018-04-12T20:31:35.491Z,16.77
2018-04-12T20:34:04.814Z,16.66
2018-04-12T20:36:35.172Z,16.65
2018-04-12T20:39:04.675Z,16.68
2018-04-12T20:41:34.060Z,16.59
2018-04-12T20:44:03.439Z,16.34
2018-04-12T20:46:32.663Z,16.33
2018-04-12T20:49:02.873Z,16.45
2018-04-12T20:51:32.755Z,16.43
2018-04-12T20:54:02.112Z,16.50
2018-04-12T20:56:30.848Z,16.65
2018-04-12T20:58:59.329Z,16.56
2018-04-12T21:01:28.016Z,16.28
2018-04-12T21:03:56.345Z,16.13
2018-04-12T21:06:24.683Z,15.93
2018-04-12T21:08:53.004Z,16.13
2018-04-12T21:11:21.283Z,16.37
2018-04-12T21:13:49.588Z,16.32
2018-04-12T21:16:17.909Z,16.37
2018-04-12T21:18:46.195Z,16.45
2018-04-12T21:21:14.491Z,16.58
2018-04-12T21:23:42.767Z,16.67
2018-04-12T21:26:11.064Z,16.63
2018-04-12T21:28:39.365Z,16.81
2018-04-12T21:31:08.403Z,16.75
2018-04-12T21:33:36.694Z,16.66
2018-04-12T21:36:04.964Z,16.08
2018-04-12T21:38:33.260Z,16.15
2018-04-12T21:41:02.310Z,16.38
2018-04-12T21:43:30.595Z,16.54
2018-04-12T21:45:58.892Z,16.42
2018-04-12T21:48:27.161Z,16.46
2018-04-12T21:50:55.420Z,16.09
2018-04-12T21:53:23.716Z,16.03
2018-04-12T21:55:51.992Z,15.81
2018-04-12T21:58:20.283Z,15.50
2018-04-12T22:00:49.319Z,15.36
2018-04-12T22:03:18.383Z,15.28
2018-04-12T22:05:46.671Z,15.32
2018-04-12T22:08:14.982Z,15.19
2018-04-12T22:10:43.288Z,15.49
2018-04-12T22:13:11.571Z,15.59
2018-04-12T22:15:39.848Z,15.58
2018-04-12T22:18:08.138Z,15.16
2018-04-12T22:20:36.447Z,14.82
2018-04-12T22:23:04.733Z,14.90
2018-04-12T22:25:33.005Z,14.90
2018-04-12T22:28:02.057Z,14.83
2018-04-12T22:30:30.323Z,14.92
2018-04-12T22:32:58.608Z,14.88
2018-04-12T22:35:26.911Z,14.91
2018-04-12T22:37:55.972Z,14.83
2018-04-12T22:40:24.263Z,14.68
2018-04-12T22:42:52.531Z,14.55
2018-04-12T22:45:20.795Z,14.73
2018-04-12T22:47:49.091Z,14.85
2018-04-12T22:50:17.370Z,14.91
2018-04-12T22:52:45.661Z,14.97
2018-04-12T22:55:13.944Z,14.93
2018-04-12T22:57:43.012Z,14.95
2018-04-12T23:00:11.282Z,15.02
2018-04-12T23:02:39.582Z,15.04
2018-04-12T23:05:07.860Z,14.88
2018-04-12T23:07:36.159Z,14.87
2018-04-12T23:10:05.196Z,14.70
2018-04-12T23:12:34.256Z,14.71
2018-04-12T23:15:02.530Z,14.45
2018-04-12T23:17:30.803Z,14.28
2018-04-12T23:19:59.150Z,14.28
2018-04-12T23:22:27.436Z,14.34
2018-04-12T23:24:56.473Z,14.05
2018-04-12T23:27:24.755Z,14.01
2018-04-12T23:29:53.028Z,13.97
2018-04-12T23:32:21.297Z,13.82
2018-04-12T23:34:49.583Z,13.88
2018-04-12T23:37:17.848Z,13.78
2018-04-12T23:39:46.121Z,13.32
2018-04-12T23:42:14.432Z,13.41
2018-04-12T23:44:42.713Z,13.55
2018-04-12T23:47:10.996Z,13.57
2018-04-12T23:49:39.280Z,13.54
2018-04-12T23:52:07.543Z,13.57
2018-04-12T23:54:35.812Z,13.63
2018-04-12T23:57:04.095Z,13.59
2018-04-12T23:59:32.382Z,13.42
